createdAt,value
2019-03-21T00:04:03.016Z,41.17
2019-03-21T00:09:11.714Z,41.11
2019-03-21T00:14:27.172Z,41.24
2019-03-21T00:19:30.631Z,41.18
2019-03-21T00:24:34.100Z,41.17
2019-03-21T00:29:37.572Z,41.22
2019-03-21T00:34:41.027Z,41.27
2019-03-21T00:39:44.499Z,41.34
2019-03-21T00:44:47.962Z,41.34
2019-03-21T00:49:51.423Z,41.35
2019-03-21T00:54:54.901Z,41.29
2019-03-21T00:59:58.357Z,41.37
2019-03-21T01:05:01.815Z,41.34
2019-03-21T01:10:17.064Z,41.33
2019-03-21T01:15:20.526Z,41.43
2019-03-21T01:20:23.980Z,41.40
2019-03-21T01:25:33.712Z,41.41
2019-03-21T01:30:37.171Z,41.48
2019-03-21T01:35:41.465Z,41.49
2019-03-21T01:40:50.552Z,41.45
2019-03-21T01:45:54.043Z,41.46
2019-03-21T01:50:57.472Z,41.50
2019-03-21T01:56:00.925Z,41.48
2019-03-21T02:01:04.626Z,41.61
2019-03-21T02:06:08.079Z,41.54
2019-03-21T02:11:11.605Z,41.59
2019-03-21T02:16:15.060Z,41.60
2019-03-21T02:21:18.515Z,41.59
2019-03-21T02:26:21.975Z,41.63
2019-03-21T02:31:25.442Z,41.61
2019-03-21T02:36:28.905Z,41.63
2019-03-21T02:41:32.361Z,41.63
2019-03-21T02:46:35.825Z,41.75
2019-03-21T02:51:39.285Z,41.62
2019-03-21T02:56:42.741Z,41.70
2019-03-21T03:01:46.206Z,41.73
2019-03-21T03:06:49.657Z,41.66
2019-03-21T03:11:53.129Z,41.72
2019-03-21T03:16:56.587Z,41.71
2019-03-21T03:22:00.051Z,41.78
2019-03-21T03:27:03.517Z,41.78
2019-03-21T03:32:06.972Z,41.77
2019-03-21T03:37:10.430Z,41.79
2019-03-21T03:42:14.180Z,41.80
2019-03-21T03:47:17.607Z,41.83
2019-03-21T03:52:21.068Z,41.80
2019-03-21T03:57:24.594Z,41.81
2019-03-21T04:02:28.053Z,41.87
2019-03-21T04:07:31.521Z,41.84
2019-03-21T04:12:35.141Z,41.83
2019-03-21T04:17:38.597Z,41.81
2019-03-21T04:22:42.821Z,41.92
2019-03-21T04:27:46.253Z,41.85
2019-03-21T04:32:49.713Z,41.83
2019-03-21T04:37:53.165Z,41.86
2019-03-21T04:42:56.621Z,41.88
2019-03-21T04:48:00.078Z,41.82
2019-03-21T04:53:03.532Z,41.99
2019-03-21T04:58:07.666Z,41.96
2019-03-21T05:03:14.018Z,41.98
2019-03-21T05:08:17.506Z,42.13
2019-03-21T05:13:20.960Z,42.16
2019-03-21T05:18:27.542Z,42.21
2019-03-21T05:23:31.088Z,42.15
2019-03-21T05:28:34.557Z,42.20
2019-03-21T05:33:38.028Z,42.30
2019-03-21T05:38:41.502Z,42.25
2019-03-21T05:43:50.967Z,42.22
2019-03-21T05:48:54.442Z,42.26
2019-03-21T05:53:57.918Z,42.23
2019-03-21T05:59:01.412Z,42.23
2019-03-21T06:04:04.869Z,42.23
2019-03-21T06:09:11.997Z,42.22
2019-03-21T06:14:15.465Z,42.22
2019-03-21T06:19:22.000Z,42.26
2019-03-21T06:24:52.908Z,42.22
2019-03-21T06:29:56.931Z,42.19
2019-03-21T06:35:00.402Z,42.18
2019-03-21T06:40:04.696Z,42.22
2019-03-21T06:45:08.127Z,42.19
2019-03-21T06:50:11.608Z,42.20
2019-03-21T06:55:15.080Z,42.23
2019-03-21T07:00:18.553Z,42.23
2019-03-21T07:05:22.034Z,42.20
2019-03-21T07:10:25.502Z,42.23
2019-03-21T07:15:28.974Z,42.20
2019-03-21T07:20:32.444Z,42.14
2019-03-21T07:25:35.919Z,42.37
2019-03-21T07:30:39.394Z,42.41
2019-03-21T07:35:42.867Z,42.45
2019-03-21T07:40:46.343Z,42.39
2019-03-21T07:45:49.820Z,42.33
2019-03-21T07:50:53.294Z,41.80
2019-03-21T07:55:56.777Z,30.36
2019-03-21T08:01:00.249Z,28.80
2019-03-21T08:06:03.741Z,28.26
2019-03-21T08:11:07.227Z,28.87
2019-03-21T08:16:10.724Z,29.28
2019-03-21T08:21:14.203Z,28.89
2019-03-21T08:26:17.678Z,29.43
2019-03-21T08:31:21.157Z,29.91
2019-03-21T08:36:24.625Z,29.96
2019-03-21T08:41:28.110Z,30.55
2019-03-21T08:46:31.581Z,30.90
2019-03-21T08:51:35.057Z,31.45
2019-03-21T08:56:38.534Z,31.85
2019-03-21T09:01:42.069Z,32.54
2019-03-21T09:06:45.544Z,32.45
2019-03-21T09:11:49.017Z,33.11
2019-03-21T09:16:52.489Z,33.73
2019-03-21T09:21:55.962Z,34.21
2019-03-21T09:26:59.433Z,34.44
2019-03-21T09:32:02.921Z,34.75
2019-03-21T09:37:06.399Z,35.04
2019-03-21T09:42:09.863Z,35.31
2019-03-21T09:47:13.336Z,35.90
2019-03-21T09:52:16.817Z,36.12
2019-03-21T09:57:20.290Z,36.38
2019-03-21T10:02:23.761Z,36.41
2019-03-21T10:07:27.246Z,36.35
2019-03-21T10:12:30.714Z,36.51
2019-03-21T10:17:34.185Z,36.60
2019-03-21T10:22:37.662Z,36.73
2019-03-21T10:27:41.147Z,36.61
2019-03-21T10:32:44.617Z,36.66
2019-03-21T10:37:48.089Z,37.07
2019-03-21T10:42:51.575Z,38.56
2019-03-21T10:47:55.043Z,39.44
2019-03-21T10:52:59.062Z,39.66
2019-03-21T10:58:02.602Z,39.92
2019-03-21T11:03:06.615Z,40.00
2019-03-21T11:08:10.096Z,40.05
2019-03-21T11:13:13.568Z,40.04
2019-03-21T11:18:17.913Z,39.77
2019-03-21T11:23:21.394Z,39.77
2019-03-21T11:28:24.866Z,39.77
2019-03-21T11:33:28.343Z,39.50
2019-03-21T11:38:31.834Z,39.29
2019-03-21T11:43:35.302Z,39.11
2019-03-21T11:48:38.775Z,39.11
2019-03-21T11:53:42.250Z,39.12
2019-03-21T11:58:45.740Z,39.12
2019-03-21T12:03:49.236Z,39.04
2019-03-21T12:08:52.709Z,38.97
2019-03-21T12:13:56.164Z,38.93
2019-03-21T12:18:59.620Z,38.68
2019-03-21T12:24:03.083Z,38.29
2019-03-21T12:29:06.545Z,38.29
2019-03-21T12:34:10.001Z,38.63
2019-03-21T12:39:13.455Z,38.52
2019-03-21T12:44:16.918Z,38.49
2019-03-21T12:49:20.378Z,38.36
2019-03-21T12:54:23.838Z,38.19
2019-03-21T12:59:27.312Z,38.29
2019-03-21T13:04:30.766Z,38.33
2019-03-21T13:09:34.225Z,38.47
2019-03-21T13:14:37.695Z,38.43
2019-03-21T13:19:41.149Z,38.43
2019-03-21T13:24:44.607Z,38.53
2019-03-21T13:29:48.068Z,38.58
2019-03-21T13:34:51.535Z,38.59
2019-03-21T13:39:54.994Z,38.56
2019-03-21T13:44:58.485Z,38.52
2019-03-21T13:50:01.957Z,38.34
2019-03-21T13:55:09.944Z,38.31
2019-03-21T14:00:16.310Z,38.38
2019-03-21T14:05:19.774Z,38.38
2019-03-21T14:10:23.235Z,38.40
2019-03-21T14:15:26.692Z,38.39
2019-03-21T14:20:30.156Z,38.50
2019-03-21T14:25:33.611Z,38.88
2019-03-21T14:30:37.069Z,38.55
2019-03-21T14:35:40.529Z,38.39
2019-03-21T14:40:43.989Z,38.16
2019-03-21T14:45:47.457Z,38.11
2019-03-21T14:50:50.909Z,38.08
2019-03-21T14:55:54.365Z,38.42
2019-03-21T15:00:57.830Z,39.22
2019-03-21T15:06:01.282Z,39.12
2019-03-21T15:11:16.341Z,39.43
2019-03-21T15:16:10.086Z,39.22
2019-03-21T15:21:13.541Z,39.00
2019-03-21T15:26:16.997Z,38.88
2019-03-21T15:31:20.452Z,38.64
2019-03-21T15:36:23.915Z,38.93
2019-03-21T15:41:27.369Z,38.84
2019-03-21T15:46:30.828Z,38.98
2019-03-21T15:51:34.286Z,38.87
2019-03-21T15:56:37.740Z,38.76
2019-03-21T16:06:51.216Z,38.83
2019-03-21T16:11:54.678Z,38.75
2019-03-21T16:16:58.137Z,38.76
2019-03-21T16:22:01.597Z,38.65
2019-03-21T16:27:05.055Z,38.44
2019-03-21T16:32:08.510Z,38.19
2019-03-21T16:37:12.174Z,38.25
2019-03-21T16:42:15.707Z,38.02
2019-03-21T16:47:19.159Z,37.98
2019-03-21T16:52:22.631Z,38.40
2019-03-21T16:57:26.091Z,38.06
2019-03-21T17:02:29.558Z,37.92
2019-03-21T17:07:33.073Z,38.58
2019-03-21T17:12:36.535Z,38.55
2019-03-21T17:17:39.990Z,38.55
2019-03-21T17:22:43.452Z,38.78
2019-03-21T17:27:46.913Z,38.78
2019-03-21T17:32:50.377Z,38.84
2019-03-21T17:37:53.937Z,39.00
2019-03-21T17:47:59.789Z,39.23
2019-03-21T17:53:03.245Z,39.42
2019-03-21T17:58:06.735Z,39.55
2019-03-21T18:08:13.755Z,39.84
2019-03-21T18:13:17.213Z,39.85
2019-03-21T18:23:30.433Z,40.06
2019-03-21T18:28:33.898Z,40.15
2019-03-21T18:33:37.370Z,40.19
2019-03-21T18:38:40.824Z,40.07
2019-03-21T18:43:44.280Z,40.17
2019-03-21T18:48:47.741Z,40.35
2019-03-21T18:53:51.198Z,40.39
2019-03-21T18:58:54.647Z,40.38
2019-03-21T19:03:58.106Z,40.53
2019-03-21T19:09:01.569Z,40.33
2019-03-21T19:14:05.014Z,39.96
2019-03-21T19:19:08.470Z,39.76
2019-03-21T19:24:11.928Z,39.78
2019-03-21T19:29:15.389Z,39.68
2019-03-21T19:34:18.840Z,39.74
2019-03-21T19:39:22.305Z,39.82
2019-03-21T19:44:25.759Z,39.84
2019-03-21T19:49:29.213Z,39.88
2019-03-21T19:54:32.669Z,39.85
2019-03-21T19:59:36.206Z,39.88
2019-03-21T20:04:39.673Z,39.94
2019-03-21T20:09:43.129Z,40.02
2019-03-21T20:14:46.591Z,40.09
2019-03-21T20:19:50.050Z,40.25
2019-03-21T20:24:53.504Z,40.24
2019-03-21T20:29:56.964Z,40.29
2019-03-21T20:35:00.423Z,40.39
2019-03-21T20:40:06.420Z,40.39
2019-03-21T20:45:12.317Z,40.41
2019-03-21T20:50:16.218Z,40.50
2019-03-21T20:55:19.672Z,40.49
2019-03-21T21:00:24.474Z,40.57
2019-03-21T21:05:27.940Z,40.56
2019-03-21T21:10:31.404Z,40.64
2019-03-21T21:15:34.864Z,40.68
2019-03-21T21:20:38.334Z,40.62
2019-03-21T21:25:41.773Z,40.70
2019-03-21T21:30:45.227Z,40.75
2019-03-21T21:35:48.728Z,40.82
2019-03-21T21:40:52.776Z,40.88
2019-03-21T21:45:56.214Z,40.85
2019-03-21T21:50:59.668Z,40.99
2019-03-21T21:56:03.131Z,41.04
2019-03-21T22:01:06.598Z,41.04
2019-03-21T22:06:10.052Z,41.15
2019-03-21T22:11:13.512Z,41.18
2019-03-21T22:16:16.964Z,41.18
2019-03-21T22:21:20.427Z,41.25
2019-03-21T22:26:29.662Z,41.26
2019-03-21T22:31:29.073Z,41.27
2019-03-21T22:36:32.546Z,41.39
2019-03-21T22:41:35.998Z,41.43
2019-03-21T22:46:39.462Z,41.47
2019-03-21T22:51:42.921Z,41.49
2019-03-21T22:56:46.386Z,41.60
2019-03-21T23:01:49.840Z,41.60
2019-03-21T23:06:53.299Z,41.73
2019-03-21T23:11:56.752Z,41.78
2019-03-21T23:17:00.209Z,41.80
2019-03-21T23:22:03.702Z,41.88
2019-03-21T23:27:07.165Z,41.80
2019-03-21T23:32:10.646Z,41.92
2019-03-21T23:37:14.144Z,41.95
2019-03-21T23:42:17.622Z,41.98
2019-03-21T23:47:21.089Z,42.05
2019-03-21T23:52:24.560Z,42.12
2019-03-21T23:57:28.036Z,42.15
